createdAt,value
2019-03-10T00:03:23.451Z,16.13
2019-03-10T00:06:47.374Z,13.60
2019-03-10T00:10:11.688Z,14.17
2019-03-10T00:13:35.382Z,11.53
2019-03-10T00:16:59.658Z,6.67
2019-03-10T00:20:23.608Z,10.60
2019-03-10T00:23:47.420Z,9.90
2019-03-10T00:27:11.804Z,9.20
2019-03-10T00:30:35.797Z,6.97
2019-03-10T00:33:59.543Z,8.97
2019-03-10T00:37:23.311Z,8.10
2019-03-10T00:41:14.535Z,4.67
2019-03-10T00:45:00.784Z,5.33
2019-03-10T00:48:47.453Z,4.70
2019-03-10T00:52:14.887Z,3.93
2019-03-10T00:55:38.955Z,6.47
2019-03-10T00:59:03.538Z,6.40
2019-03-10T01:02:27.243Z,12.20
2019-03-10T01:05:51.189Z,5.87
2019-03-10T01:09:15.704Z,4.10
2019-03-10T01:12:39.675Z,10.13
2019-03-10T01:16:05.127Z,3.53
2019-03-10T01:19:29.595Z,4.63
2019-03-10T01:22:53.401Z,4.03
2019-03-10T01:26:17.248Z,3.33
2019-03-10T01:29:40.988Z,3.30
2019-03-10T01:33:25.899Z,3.27
2019-03-10T01:36:50.147Z,2.97
2019-03-10T01:40:14.276Z,4.13
2019-03-10T01:43:38.053Z,8.50
2019-03-10T01:47:02.518Z,3.33
2019-03-10T01:50:26.500Z,3.97
2019-03-10T01:53:50.235Z,4.00
2019-03-10T01:57:14.010Z,3.23
2019-03-10T02:00:37.926Z,6.87
2019-03-10T02:04:01.818Z,4.90
2019-03-10T02:07:26.730Z,5.50
2019-03-10T02:10:50.498Z,4.00
2019-03-10T02:14:14.278Z,3.97
2019-03-10T02:17:38.099Z,2.57
2019-03-10T02:21:01.822Z,6.00
2019-03-10T02:24:25.620Z,5.17
2019-03-10T02:27:49.482Z,7.40
2019-03-10T02:31:13.395Z,3.33
2019-03-10T02:34:37.139Z,3.90
2019-03-10T02:38:01.074Z,4.13
2019-03-10T02:41:25.019Z,4.73
2019-03-10T02:44:48.786Z,4.03
2019-03-10T02:48:13.034Z,5.00
2019-03-10T02:51:36.854Z,6.43
2019-03-10T02:55:00.639Z,3.37
2019-03-10T02:58:24.351Z,6.80
2019-03-10T03:01:48.330Z,7.43
2019-03-10T03:05:12.616Z,3.03
2019-03-10T03:08:36.644Z,7.20
2019-03-10T03:12:00.421Z,10.17
2019-03-10T03:15:24.261Z,5.27
2019-03-10T03:18:48.316Z,7.03
2019-03-10T03:22:12.227Z,7.97
2019-03-10T03:25:36.591Z,9.37
2019-03-10T03:29:00.399Z,4.30
2019-03-10T03:32:24.351Z,6.73
2019-03-10T03:35:55.541Z,4.00
2019-03-10T03:39:28.223Z,8.23
2019-03-10T03:42:53.030Z,6.60
2019-03-10T03:46:16.714Z,4.33
2019-03-10T03:49:40.957Z,5.77
2019-03-10T03:53:05.355Z,6.83
2019-03-10T03:56:29.368Z,4.67
2019-03-10T03:59:53.268Z,5.90
2019-03-10T04:03:17.103Z,9.07
2019-03-10T04:06:40.895Z,8.63
2019-03-10T04:10:06.876Z,11.03
2019-03-10T04:13:30.788Z,4.83
2019-03-10T04:16:54.859Z,3.33
2019-03-10T04:20:18.657Z,10.90
2019-03-10T04:23:42.675Z,7.50
2019-03-10T04:27:06.356Z,7.57
2019-03-10T04:30:30.806Z,4.40
2019-03-10T04:33:54.570Z,5.87
2019-03-10T04:37:18.328Z,7.53
2019-03-10T04:40:42.281Z,5.20
2019-03-10T04:44:06.133Z,10.73
2019-03-10T04:47:30.098Z,6.73
2019-03-10T04:50:53.867Z,6.37
2019-03-10T04:54:20.115Z,6.97
2019-03-10T04:58:00.651Z,6.43
2019-03-10T05:01:24.502Z,8.03
2019-03-10T05:04:48.242Z,6.17
2019-03-10T05:08:12.056Z,6.70
2019-03-10T05:11:35.791Z,5.97
2019-03-10T05:14:59.578Z,8.60
2019-03-10T05:18:23.356Z,8.70
2019-03-10T05:21:47.158Z,10.43
2019-03-10T05:25:13.575Z,10.03
2019-03-10T05:28:42.678Z,6.40
2019-03-10T05:32:06.430Z,6.60
2019-03-10T05:35:30.234Z,4.40
2019-03-10T05:38:54.255Z,5.67
2019-03-10T05:42:18.137Z,8.07
2019-03-10T05:45:41.978Z,6.90
2019-03-10T05:49:05.657Z,5.83
2019-03-10T05:52:29.574Z,7.03
2019-03-10T05:55:53.477Z,5.53
2019-03-10T05:59:17.183Z,13.57
2019-03-10T06:02:40.916Z,5.67
2019-03-10T06:06:04.613Z,4.53
2019-03-10T06:09:28.415Z,10.43
2019-03-10T06:12:52.408Z,8.43
2019-03-10T06:16:16.185Z,7.67
2019-03-10T06:19:39.932Z,7.70
2019-03-10T06:23:03.728Z,8.00
2019-03-10T06:26:27.473Z,7.03
2019-03-10T06:29:52.297Z,7.93
2019-03-10T06:33:16.151Z,10.33
2019-03-10T06:36:39.977Z,8.73
2019-03-10T06:40:06.088Z,8.60
2019-03-10T06:43:30.003Z,11.10
2019-03-10T06:46:53.964Z,6.33
2019-03-10T06:50:17.801Z,6.47
2019-03-10T06:53:42.603Z,10.43
2019-03-10T06:57:06.343Z,5.60
2019-03-10T07:00:30.976Z,12.67
2019-03-10T07:03:54.640Z,17.27
2019-03-10T07:07:18.720Z,9.93
2019-03-10T07:10:42.438Z,7.67
2019-03-10T07:14:06.218Z,4.23
2019-03-10T07:17:30.696Z,6.43
2019-03-10T07:20:57.632Z,5.33
2019-03-10T07:24:20.901Z,4.20
2019-03-10T07:27:46.846Z,5.03
2019-03-10T07:31:15.433Z,5.07
2019-03-10T07:34:43.881Z,6.80
2019-03-10T07:38:09.537Z,2.47
2019-03-10T07:41:37.725Z,6.87
2019-03-10T07:45:05.900Z,5.53
2019-03-10T07:48:34.188Z,4.60
2019-03-10T07:52:19.747Z,3.87
2019-03-10T07:55:41.777Z,5.70
2019-03-10T07:59:13.025Z,5.43
2019-03-10T08:02:38.580Z,6.37
2019-03-10T08:06:04.231Z,8.17
2019-03-10T08:09:29.772Z,6.33
2019-03-10T08:12:55.647Z,5.03
2019-03-10T08:16:28.797Z,7.23
2019-03-10T08:19:57.198Z,8.07
2019-03-10T08:23:28.852Z,3.83
2019-03-10T08:26:59.952Z,4.23
2019-03-10T08:30:29.155Z,4.40
2019-03-10T08:34:05.258Z,7.03
2019-03-10T08:37:31.453Z,3.93
2019-03-10T08:41:02.641Z,3.57
2019-03-10T08:44:46.443Z,6.10
2019-03-10T08:48:26.652Z,2.73
2019-03-10T08:51:54.965Z,7.73
2019-03-10T08:55:23.157Z,5.00
2019-03-10T08:59:03.323Z,4.90
2019-03-10T09:02:28.872Z,2.60
2019-03-10T09:05:54.492Z,4.27
2019-03-10T09:09:20.851Z,1.50
2019-03-10T09:12:52.350Z,4.80
2019-03-10T09:16:21.906Z,3.47
2019-03-10T09:20:03.090Z,2.10
2019-03-10T09:23:41.420Z,3.03
2019-03-10T09:27:06.829Z,3.03
2019-03-10T09:30:47.153Z,5.17
2019-03-10T09:34:18.109Z,4.13
2019-03-10T09:38:00.628Z,6.97
2019-03-10T09:41:34.912Z,5.37
2019-03-10T09:45:17.174Z,4.53
2019-03-10T09:48:57.599Z,7.30
2019-03-10T09:52:39.574Z,3.73
2019-03-10T09:56:17.243Z,4.80
2019-03-10T09:59:43.415Z,4.60
2019-03-10T10:03:25.579Z,4.80
2019-03-10T10:06:54.307Z,10.43
2019-03-10T10:10:22.716Z,4.17
2019-03-10T10:13:48.236Z,4.97
2019-03-10T10:17:16.401Z,4.67
2019-03-10T10:20:58.206Z,5.80
2019-03-10T10:24:29.297Z,4.90
2019-03-10T10:27:57.801Z,5.97
2019-03-10T10:31:26.193Z,5.93
2019-03-10T10:35:00.913Z,6.63
2019-03-10T10:38:42.966Z,8.60
2019-03-10T10:42:14.393Z,5.43
2019-03-10T10:45:40.022Z,7.63
2019-03-10T10:49:05.430Z,5.17
2019-03-10T10:52:47.605Z,4.17
2019-03-10T10:56:31.019Z,8.07
2019-03-10T10:59:56.498Z,6.30
2019-03-10T11:03:24.916Z,6.60
2019-03-10T11:06:50.270Z,6.20
2019-03-10T11:10:22.719Z,4.77
2019-03-10T11:14:00.618Z,6.80
2019-03-10T11:17:27.574Z,8.10
2019-03-10T11:20:53.048Z,5.70
2019-03-10T11:24:25.915Z,6.63
2019-03-10T11:27:51.657Z,4.07
2019-03-10T11:31:17.449Z,4.40
2019-03-10T11:34:42.964Z,7.33
2019-03-10T11:38:14.424Z,5.57
2019-03-10T11:41:42.077Z,4.37
2019-03-10T11:45:10.562Z,6.70
2019-03-10T11:48:42.213Z,4.60
2019-03-10T11:52:08.413Z,4.70
2019-03-10T11:55:42.762Z,5.10
2019-03-10T11:59:12.298Z,3.60
2019-03-10T12:02:56.164Z,5.90
2019-03-10T12:06:21.636Z,5.03
2019-03-10T12:09:45.566Z,6.73
2019-03-10T12:13:10.561Z,7.87
2019-03-10T12:16:34.809Z,4.80
2019-03-10T12:19:59.158Z,9.07
2019-03-10T12:23:24.566Z,8.17
2019-03-10T12:26:48.662Z,6.20
2019-03-10T12:30:14.795Z,6.37
2019-03-10T12:33:38.619Z,4.37
2019-03-10T12:37:02.519Z,7.10
2019-03-10T12:40:26.386Z,4.97
2019-03-10T12:43:50.172Z,6.17
2019-03-10T12:47:13.906Z,7.43
2019-03-10T12:50:38.073Z,7.23
2019-03-10T12:54:02.879Z,8.63
2019-03-10T12:57:26.683Z,7.37
2019-03-10T13:00:50.805Z,5.40
2019-03-10T13:04:14.611Z,4.90
2019-03-10T13:07:38.684Z,7.53
2019-03-10T13:11:02.624Z,9.17
2019-03-10T13:14:26.890Z,8.70
2019-03-10T13:17:51.068Z,11.37
2019-03-10T13:21:14.894Z,11.13
2019-03-10T13:24:38.816Z,10.53
2019-03-10T13:28:02.954Z,9.07
2019-03-10T13:31:26.864Z,13.80
2019-03-10T13:34:50.534Z,14.70
2019-03-10T13:38:14.672Z,9.50
2019-03-10T13:41:38.544Z,8.80
2019-03-10T13:45:02.633Z,10.30
2019-03-10T13:48:26.400Z,12.47
2019-03-10T13:51:50.160Z,13.03
2019-03-10T13:55:14.094Z,9.50
2019-03-10T13:58:38.017Z,10.13
2019-03-10T14:02:01.856Z,9.83
2019-03-10T14:05:28.143Z,10.33
2019-03-10T14:08:52.248Z,11.97
2019-03-10T14:12:16.195Z,11.97
2019-03-10T14:15:40.083Z,10.03
2019-03-10T14:19:03.998Z,13.60
2019-03-10T14:22:27.785Z,12.20
2019-03-10T14:25:51.736Z,18.00
2019-03-10T14:29:15.804Z,17.33
2019-03-10T14:32:40.593Z,11.17
2019-03-10T14:36:04.515Z,18.57
2019-03-10T14:39:28.297Z,16.53
2019-03-10T14:42:53.052Z,18.20
2019-03-10T14:46:17.281Z,17.03
2019-03-10T14:49:41.649Z,14.70
2019-03-10T14:53:05.861Z,15.47
2019-03-10T14:56:30.849Z,17.50
2019-03-10T14:59:55.271Z,21.33
2019-03-10T15:03:21.205Z,16.20
2019-03-10T15:06:45.468Z,14.60
2019-03-10T15:10:14.492Z,16.93
2019-03-10T15:13:38.699Z,14.50
2019-03-10T15:17:02.762Z,15.23
2019-03-10T15:20:26.593Z,20.43
2019-03-10T15:23:50.385Z,17.53
2019-03-10T15:27:23.038Z,16.70
2019-03-10T15:30:39.843Z,21.57
2019-03-10T15:34:03.665Z,14.60
2019-03-10T15:37:27.633Z,20.53
2019-03-10T15:40:51.331Z,23.70
2019-03-10T15:44:15.547Z,23.10
2019-03-10T15:47:39.441Z,30.67
2019-03-10T15:51:03.455Z,31.93
2019-03-10T15:54:27.575Z,33.73
2019-03-10T15:57:51.540Z,30.87
2019-03-10T16:01:15.533Z,38.33
2019-03-10T16:04:40.112Z,41.43
2019-03-10T16:08:04.169Z,37.10
2019-03-10T16:11:28.471Z,35.87
2019-03-10T16:14:52.272Z,37.30
2019-03-10T16:18:16.286Z,30.17
2019-03-10T16:21:40.251Z,29.03
2019-03-10T16:25:06.644Z,23.17
2019-03-10T16:28:30.578Z,29.63
2019-03-10T16:31:54.595Z,37.67
2019-03-10T16:35:21.975Z,32.63
2019-03-10T16:38:44.984Z,39.93
2019-03-10T16:42:09.323Z,34.03
2019-03-10T16:45:33.055Z,41.47
2019-03-10T16:48:57.420Z,36.63
2019-03-10T16:52:21.248Z,39.60
2019-03-10T16:55:45.106Z,51.37
2019-03-10T16:59:08.849Z,56.33
2019-03-10T17:02:32.715Z,66.77
2019-03-10T17:05:57.121Z,52.37
2019-03-10T17:09:21.091Z,59.30
2019-03-10T17:12:45.134Z,65.87
2019-03-10T17:16:09.000Z,48.57
2019-03-10T17:19:32.744Z,70.33
2019-03-10T17:22:56.553Z,51.30
2019-03-10T17:26:20.356Z,48.97
2019-03-10T17:29:44.932Z,44.73
2019-03-10T17:33:08.760Z,44.67
2019-03-10T17:36:32.556Z,33.30
2019-03-10T17:39:56.504Z,33.53
2019-03-10T17:43:20.399Z,34.30
2019-03-10T17:46:44.589Z,36.93
2019-03-10T17:50:09.931Z,42.17
2019-03-10T17:53:33.725Z,33.57
2019-03-10T17:56:58.126Z,39.33
2019-03-10T18:00:23.919Z,45.60
2019-03-10T18:03:48.281Z,43.60
2019-03-10T18:07:12.107Z,42.20
2019-03-10T18:10:35.994Z,56.77
2019-03-10T18:14:00.749Z,45.13
2019-03-10T18:17:24.724Z,49.23
2019-03-10T18:20:48.708Z,68.10
2019-03-10T18:24:15.342Z,68.67
2019-03-10T18:27:39.204Z,66.23
2019-03-10T18:31:03.394Z,68.33
2019-03-10T18:34:27.542Z,55.17
2019-03-10T18:37:54.783Z,47.07
2019-03-10T18:41:18.656Z,55.70
2019-03-10T18:44:42.629Z,45.60
2019-03-10T18:48:06.596Z,39.87
2019-03-10T18:51:30.494Z,41.70
2019-03-10T18:54:54.235Z,48.73
2019-03-10T18:58:18.032Z,46.13
2019-03-10T19:01:42.065Z,49.00
2019-03-10T19:05:07.091Z,41.70
2019-03-10T19:08:30.890Z,44.90
2019-03-10T19:11:54.683Z,47.87
2019-03-10T19:15:22.444Z,50.90
2019-03-10T19:18:46.747Z,50.87
2019-03-10T19:22:10.650Z,51.30
2019-03-10T19:25:34.538Z,49.73
2019-03-10T19:28:59.411Z,51.67
2019-03-10T19:32:23.437Z,54.17
2019-03-10T19:35:51.267Z,62.10
2019-03-10T19:39:15.278Z,61.67
2019-03-10T19:42:39.062Z,59.30
2019-03-10T19:46:03.043Z,51.70
2019-03-10T19:49:27.096Z,55.50
2019-03-10T19:52:51.136Z,50.27
2019-03-10T19:56:15.356Z,50.17
2019-03-10T19:59:39.261Z,50.37
2019-03-10T20:03:03.846Z,45.03
2019-03-10T20:06:27.759Z,43.57
2019-03-10T20:09:52.072Z,46.13
2019-03-10T20:13:15.891Z,42.20
2019-03-10T20:16:39.731Z,44.07
2019-03-10T20:20:04.463Z,40.90
2019-03-10T20:23:28.224Z,50.07
2019-03-10T20:26:52.856Z,45.90
2019-03-10T20:30:20.835Z,43.20
2019-03-10T20:33:44.669Z,43.87
2019-03-10T20:37:09.398Z,46.90
2019-03-10T20:40:33.180Z,45.57
2019-03-10T20:43:57.102Z,48.80
2019-03-10T20:47:20.981Z,43.13
2019-03-10T20:50:45.486Z,47.17
2019-03-10T20:54:09.457Z,45.00
2019-03-10T20:57:33.334Z,45.53
2019-03-10T21:00:57.276Z,44.13
2019-03-10T21:04:22.852Z,43.50
2019-03-10T21:07:47.301Z,39.73
2019-03-10T21:11:12.520Z,33.03
2019-03-10T21:14:36.603Z,32.60
2019-03-10T21:18:00.597Z,34.80
2019-03-10T21:21:25.190Z,30.93
2019-03-10T21:24:52.779Z,27.47
2019-03-10T21:28:16.728Z,26.30
2019-03-10T21:31:41.763Z,19.00
2019-03-10T21:35:16.870Z,13.90
2019-03-10T21:38:33.428Z,14.83
2019-03-10T21:41:57.274Z,13.30
2019-03-10T21:45:22.288Z,8.57
2019-03-10T21:48:46.878Z,9.13
2019-03-10T21:52:10.802Z,5.87
2019-03-10T21:55:34.684Z,10.07
2019-03-10T21:58:58.456Z,8.80
2019-03-10T22:02:22.326Z,9.50
2019-03-10T22:05:46.310Z,6.13
2019-03-10T22:09:10.135Z,6.47
2019-03-10T22:12:33.860Z,7.37
2019-03-10T22:15:57.741Z,7.53
2019-03-10T22:19:22.981Z,8.43
2019-03-10T22:22:49.223Z,5.40
2019-03-10T22:26:12.463Z,5.97
2019-03-10T22:29:36.294Z,8.10
2019-03-10T22:33:00.083Z,7.00
2019-03-10T22:36:23.866Z,5.97
2019-03-10T22:39:47.901Z,5.67
2019-03-10T22:43:11.659Z,9.67
2019-03-10T22:46:35.433Z,8.33
2019-03-10T22:49:59.204Z,5.87
2019-03-10T22:53:23.008Z,8.13
2019-03-10T22:56:46.774Z,4.67
2019-03-10T23:00:47.265Z,4.70
2019-03-10T23:04:11.106Z,5.13
2019-03-10T23:07:34.666Z,8.03
2019-03-10T23:10:58.458Z,5.90
2019-03-10T23:14:22.293Z,4.97
2019-03-10T23:17:46.121Z,4.63
2019-03-10T23:21:10.051Z,4.87
2019-03-10T23:24:34.039Z,5.60
2019-03-10T23:27:58.005Z,3.60
2019-03-10T23:31:22.216Z,6.00
2019-03-10T23:34:46.021Z,8.63
2019-03-10T23:38:09.864Z,6.10
2019-03-10T23:41:33.733Z,4.17
2019-03-10T23:44:57.539Z,5.50
2019-03-10T23:48:21.333Z,8.33
2019-03-10T23:51:45.791Z,7.33
2019-03-10T23:55:11.735Z,3.70
2019-03-10T23:58:35.768Z,5.80
